Accedi per prenotare

Situazione Metar e Taf aeroporto Pisa - Effemeridi Aeroporto Lucca

[Source: ADDS]
METAR
LIRP 211545Z 26008KT 9999 FEW025TCU 26/20 Q1015 NOSIG =
TAF
AMD LIRP 211300Z 2113/2212 27012KT 9999 FEW030 TEMPO 2113/2118 3000 TSRA FEW020CB SCT030 BECMG 2118/2120 VRB03KT 9999 FEW040 SCT080 PROB40 TEMPO 2122/2206 5000 BR TEMPO 2205/2211 9999 SCT030 SCT060 =
SR / SS: 03:40 / 19:02 UTC (Effemeridi LIQL 2018-06-21)